Maersk Essen — V7UQ8 — position and weather

sailwx.info

Track history (hours):
 
Tides and Currents Weather Stations Pressure Air Temp Water Temp Dewpoint Dewpoint Depression Visibility Wind Speed Wind Dir Waves Ship Positions

Maersk Essen

Last reported at 2014-Oct-23 08:33 UTC. Time now 2014-Oct-23 09:29 UTC.
Position N 51°18' E 004°15'.

Length 367 m; draft 12 m.

Type: Ship (hazmat cat A). MMSI: 538004007.

Date/timePositionNaut miles runAvg speedWind from/ knotsBaromVisibWave heightAir tempDewpointWater temp
2014-Oct-23 08:33N 51°18' E 004°15'0 0.0
2014-Oct-23 07:33N 51°18' E 004°15'0 0.0
2014-Oct-23 06:33N 51°18' E 004°15'0 0.0
2014-Oct-23 05:33N 51°18' E 004°16'0 0.0
2014-Oct-23 04:33N 51°18' E 004°16'0 0.0
2014-Oct-23 03:33N 51°18' E 004°16'0 0.0
2014-Oct-23 02:33N 51°18' E 004°15'0 0.0
2014-Oct-23 01:33N 51°18' E 004°16'0 0.0
2014-Oct-23 00:33N 51°18' E 004°16'0 0.0
2014-Oct-22 23:33N 51°18' E 004°15'0 0.0
2014-Oct-22 22:34N 51°18' E 004°16'2 1.5
2014-Oct-22 21:34N 51°19' E 004°16'6 6.2
2014-Oct-22 20:33N 51°22' E 004°08'7 6.9
2014-Oct-22 19:34N 51°23' E 003°57'1010.0
2014-Oct-22 18:33N 51°26' E 003°41'1111.2
2014-Oct-22 17:34N 51°24' E 003°23'1414.1
2014-Oct-22 16:33N 51°25' E 003°01'1413.7
2014-Oct-22 15:32N 51°37' E 003°11'1211.8
2014-Oct-22 14:33N 51°49' E 003°12'1 1.0
2014-Oct-22 13:33N 51°48' E 003°12'3 3.3
2014-Oct-22 12:29N 51°44' E 003°11'4 4.4
2014-Oct-22 11:33N 51°41' E 003°07'2 2.1
2014-Oct-22 10:30N 51°43' E 003°04'2 2.1
2014-Oct-22 09:33N 51°44' E 003°02'1 1.4
2014-Oct-22 08:33N 51°44' E 002°60'1 1.3
2014-Oct-22 07:33N 51°45' E 003°01'5 4.3
2014-Oct-22 06:27N 51°44' E 003°08'4 4.8
2014-Oct-22 05:33N 51°47' E 003°14'3 2.3
2014-Oct-22 04:27N 51°49' E 003°12'2 2.2
2014-Oct-22 03:29N 51°48' E 003°15'1 1.2
2014-Oct-22 02:20N 51°49' E 003°16'2 2.4
2014-Oct-22 01:31N 51°51' E 003°17'7 7.6
2014-Oct-22 00:33N 51°58' E 003°20'1514.4
2014-Oct-21 23:32N 52°11' E 003°30'1514.8
2014-Oct-21 22:30N 52°25' E 003°40'1514.6
2014-Oct-21 21:29N 52°38' E 003°51'1615.7
2014-Oct-21 20:29N 52°53' E 003°59'1515.6
2014-Oct-21 19:33N 53°05' E 004°14'1515.6
2014-Oct-21 18:33N 53°17' E 004°29'1414.2
2014-Oct-21 17:33N 53°29' E 004°41'1413.4
2014-Oct-21 16:33N 53°35' E 005°02'1212.4
2014-Oct-21 15:33N 53°39' E 005°22'1313.1
2014-Oct-21 14:33N 53°43' E 005°43'1413.9
2014-Oct-21 13:34N 53°47' E 006°05'1514.3
2014-Oct-21 12:29N 53°51' E 006°30'3314.2
2014-Oct-21 10:10N 53°59' E 007°24'913.8
2014-Oct-21 09:29N 54°01' E 007°40'1313.9
2014-Oct-21 08:33N 54°01' E 008°02'1313.2
2014-Oct-21 07:33N 53°59' E 008°24'1313.5
2014-Oct-21 06:33N 53°52' E 008°44'1615.5
2014-Oct-21 05:33N 53°53' E 009°10'1514.7
2014-Oct-21 04:33N 53°43' E 009°29'1312.6
2014-Oct-21 03:34N 53°34' E 009°43'8 7.5
2014-Oct-21 02:33N 53°32' E 009°55'0 0.0
2014-Oct-21 01:32N 53°32' E 009°55'0 0.0
2014-Oct-21 00:32N 53°32' E 009°55'0 0.0
2014-Oct-20 23:29N 53°32' E 009°55'0 0.0
2014-Oct-20 22:26N 53°32' E 009°55'0 0.0
2014-Oct-20 21:29N 53°32' E 009°55'0 0.0
2014-Oct-20 20:32N 53°32' E 009°55'0 0.0
2014-Oct-20 19:29N 53°32' E 009°55'0 0.0
2014-Oct-20 18:32N 53°32' E 009°55'0 0.0
2014-Oct-20 17:32N 53°32' E 009°55'0 0.0
2014-Oct-20 16:29N 53°32' E 009°55'0 0.0
2014-Oct-20 15:29N 53°32' E 009°55'0 0.0
2014-Oct-20 14:29N 53°32' E 009°55'0 0.0
2014-Oct-20 13:29N 53°32' E 009°55'0 0.0
2014-Oct-20 12:29N 53°32' E 009°55'0 0.0
2014-Oct-20 11:32N 53°32' E 009°55'0 0.0
2014-Oct-20 10:29N 53°32' E 009°55'0 0.0
2014-Oct-20 09:32N 53°32' E 009°55'0 0.0
2014-Oct-20 08:29N 53°32' E 009°55'0 0.0
2014-Oct-20 07:29N 53°32' E 009°55'0 0.0
2014-Oct-20 06:29N 53°32' E 009°55'0 0.0
2014-Oct-20 05:29N 53°32' E 009°55'0 0.0
2014-Oct-20 04:32N 53°32' E 009°55'0 0.0
2014-Oct-20 03:32N 53°32' E 009°55'0 0.0
2014-Oct-20 02:29N 53°32' E 009°55'0 0.0
2014-Oct-20 01:32N 53°32' E 009°55'1 1.3
2014-Oct-20 00:33N 53°32' E 009°54'8 8.2
2014-Oct-19 23:33N 53°34' E 009°40'1313.3
2014-Oct-19 22:33N 53°44' E 009°26'1313.2
2014-Oct-19 21:33N 53°53' E 009°09'1110.8
2014-Oct-19 20:33N 53°50' E 008°51'1111.1
2014-Oct-19 19:33N 53°57' E 008°36'1615.8
2014-Oct-19 18:33N 53°59' E 008°10'1111.0
2014-Oct-19 17:33N 53°57' E 007°51'2 2.0
2014-Oct-19 16:32N 53°55' E 007°53'0 0.0
2014-Oct-19 15:31N 53°55' E 007°53'0 0.0
2014-Oct-19 14:31N 53°55' E 007°53'0 0.0
2014-Oct-19 13:31N 53°55' E 007°53'0 0.1
2014-Oct-19 12:31N 53°55' E 007°52'0 0.0
2014-Oct-19 11:31N 53°55' E 007°52'2 1.7
2014-Oct-19 10:33N 53°54' E 007°50'1515.5
2014-Oct-19 09:34N 53°45' E 008°12'1312.5
2014-Oct-19 08:33N 53°37' E 008°28'2 2.4
2014-Oct-19 07:33N 53°36' E 008°31'0 0.0
2014-Oct-19 06:33N 53°36' E 008°31'0 0.0
2014-Oct-19 05:32N 53°36' E 008°31'0 0.0
2014-Oct-19 04:32N 53°36' E 008°31'0 0.0
2014-Oct-19 03:32N 53°36' E 008°31'0 0.0
2014-Oct-19 02:32N 53°36' E 008°31'0 0.0
2014-Oct-19 01:32N 53°36' E 008°31'0 0.0
2014-Oct-19 00:32N 53°36' E 008°31'0 0.0
2014-Oct-18 23:32N 53°36' E 008°31'0 0.0
2014-Oct-18 22:32N 53°36' E 008°31'0 0.0
2014-Oct-18 21:32N 53°36' E 008°31'0 0.0
2014-Oct-18 20:32N 53°36' E 008°31'0 0.0
2014-Oct-18 19:32N 53°36' E 008°31'0 0.0
2014-Oct-18 18:32N 53°36' E 008°31'0 0.0
2014-Oct-18 17:32N 53°36' E 008°31'0 0.0
2014-Oct-18 16:32N 53°36' E 008°31'0 0.0
2014-Oct-18 15:32N 53°36' E 008°31'0 0.0
2014-Oct-18 14:32N 53°36' E 008°31'0 0.0
2014-Oct-18 13:32N 53°36' E 008°31'0 0.0
2014-Oct-18 12:32N 53°36' E 008°31'0 0.0
2014-Oct-18 11:32N 53°36' E 008°31'0 0.0
2014-Oct-18 10:32N 53°36' E 008°31'0 0.0
2014-Oct-18 09:32N 53°36' E 008°31'0 0.0
2014-Oct-18 08:32N 53°36' E 008°31'0 0.0
2014-Oct-18 07:32N 53°36' E 008°31'0 0.0
2014-Oct-18 06:32N 53°36' E 008°31'0 0.0
2014-Oct-18 05:32N 53°36' E 008°31'0 0.0
2014-Oct-18 04:32N 53°36' E 008°31'0 0.0
2014-Oct-18 03:32N 53°36' E 008°31'0 0.0
2014-Oct-18 02:32N 53°36' E 008°31'0 0.0
2014-Oct-18 01:32N 53°36' E 008°31'0 0.0
2014-Oct-18 00:32N 53°36' E 008°31'0 0.0
2014-Oct-17 23:32N 53°36' E 008°31'0 0.0
2014-Oct-17 22:32N 53°36' E 008°31'0 0.0
2014-Oct-17 21:32N 53°36' E 008°31'0 0.0
2014-Oct-17 20:32N 53°36' E 008°31'0 0.0
2014-Oct-17 19:32N 53°36' E 008°31'0 0.0
2014-Oct-17 18:32N 53°36' E 008°31'0 0.0
2014-Oct-17 17:32N 53°36' E 008°31'0 0.0
2014-Oct-17 16:32N 53°36' E 008°31'0 0.0
2014-Oct-17 15:32N 53°36' E 008°31'0 0.0
2014-Oct-17 14:32N 53°36' E 008°31'0 0.0
2014-Oct-17 13:32N 53°36' E 008°31'0 0.0
2014-Oct-17 12:32N 53°36' E 008°31'0 0.0
2014-Oct-17 11:32N 53°36' E 008°31'0 0.0
2014-Oct-17 10:32N 53°36' E 008°31'0 0.0
2014-Oct-17 09:32N 53°36' E 008°31'0 0.0
2014-Oct-17 08:32N 53°36' E 008°31'0 0.0
2014-Oct-17 07:32N 53°36' E 008°31'0 0.0
2014-Oct-17 06:32N 53°36' E 008°31'0 0.0
2014-Oct-17 05:32N 53°36' E 008°31'0 0.0
2014-Oct-17 04:33N 53°36' E 008°31'5 5.1
2014-Oct-17 03:33N 53°39' E 008°24'1413.9
2014-Oct-17 02:33N 53°49' E 008°07'1717.1
2014-Oct-17 01:33N 53°54' E 007°40'2114.4
2014-Oct-17 00:07N 53°52' E 007°04'915.0
2014-Oct-16 23:31N 53°50' E 006°49'1414.8
2014-Oct-16 22:33N 53°46' E 006°26'1414.5
2014-Oct-16 21:34N 53°42' E 006°03'1414.3
2014-Oct-16 20:33N 53°37' E 005°40'1414.1
2014-Oct-16 19:33N 53°33' E 005°17'1413.9
2014-Oct-16 18:33N 53°28' E 004°56'1313.2
2014-Oct-16 17:33N 53°20' E 004°38'1413.4
2014-Oct-16 16:32N 53°07' E 004°28'1313.4
2014-Oct-16 15:33N 52°56' E 004°18'1313.2
2014-Oct-16 14:33N 52°44' E 004°07'1313.4
2014-Oct-16 13:33N 52°35' E 003°51'1313.3
2014-Oct-16 12:33N 52°24' E 003°39'1413.7
2014-Oct-16 11:33N 52°11' E 003°32'1211.8
2014-Oct-16 10:33N 52°05' E 003°48'1111.5
2014-Oct-16 09:34N 51°59' E 004°04'2 1.7
2014-Oct-16 08:31N 51°57' E 004°02'0 0.0
2014-Oct-16 07:31N 51°57' E 004°02'0 0.0
2014-Oct-16 06:31N 51°57' E 004°02'0 0.0
2014-Oct-16 05:31N 51°57' E 004°02'0 0.0
2014-Oct-16 04:31N 51°57' E 004°02'0 0.0
2014-Oct-16 03:31N 51°57' E 004°02'0 0.0
2014-Oct-16 02:31N 51°57' E 004°02'0 0.0
2014-Oct-16 01:31N 51°57' E 004°02'0 0.0
2014-Oct-16 00:31N 51°57' E 004°02'0 0.0
2014-Oct-15 23:31N 51°57' E 004°02'0 0.0
2014-Oct-15 22:31N 51°57' E 004°02'0 0.0
2014-Oct-15 21:31N 51°57' E 004°02'0 0.0
2014-Oct-15 20:31N 51°57' E 004°02'0 0.0
2014-Oct-15 19:31N 51°57' E 004°02'0 0.0
2014-Oct-15 18:31N 51°57' E 004°02'0 0.0
2014-Oct-15 17:28N 51°57' E 004°02'0 0.0
2014-Oct-15 16:31N 51°57' E 004°02'0 0.0
2014-Oct-15 15:22N 51°57' E 004°02'0 0.0
2014-Oct-15 14:31N 51°57' E 004°02'0 0.0
2014-Oct-15 13:31N 51°57' E 004°02'0 0.3
2014-Oct-15 12:33N 51°58' E 004°03'2 2.4
2014-Oct-15 11:33N 51°60' E 004°01'1010.0
2014-Oct-15 10:33N 51°59' E 003°45'10 9.9
2014-Oct-15 09:33N 51°57' E 003°29'4214.0
2014-Oct-15 06:33N 51°39' E 002°28'1918.5
2014-Oct-15 05:33N 51°23' E 002°12'2120.9
2014-Oct-15 04:34N 51°08' E 001°49'2221.9
2014-Oct-15 03:33N 50°51' E 001°27'2420.5
2014-Oct-15 02:23N 50°32' E 001°03'1821.1
2014-Oct-15 01:33N 50°25' E 000°38'  
Track history (hours):
 
Tides and Currents Weather Stations Pressure Air Temp Water Temp Dewpoint Dewpoint Depression Visibility Wind Speed Wind Dir Waves Ship Positions

Maersk Essen

Last reported at 2014-Oct-23 08:33 UTC. Time now 2014-Oct-23 09:29 UTC.
Position N 51°18' E 004°15'.

Length 367 m; draft 12 m.

Type: Ship (hazmat cat A). MMSI: 538004007.

Date/timePositionNaut miles runAvg speedWind from/ knotsBaromVisibWave heightAir tempDewpointWater temp
2014-Oct-23 08:33N 51°18' E 004°15'0 0.0
2014-Oct-23 07:33N 51°18' E 004°15'0 0.0
2014-Oct-23 06:33N 51°18' E 004°15'0 0.0
2014-Oct-23 05:33N 51°18' E 004°16'0 0.0
2014-Oct-23 04:33N 51°18' E 004°16'0 0.0
2014-Oct-23 03:33N 51°18' E 004°16'0 0.0
2014-Oct-23 02:33N 51°18' E 004°15'0 0.0
2014-Oct-23 01:33N 51°18' E 004°16'0 0.0
2014-Oct-23 00:33N 51°18' E 004°16'0 0.0
2014-Oct-22 23:33N 51°18' E 004°15'0 0.0
2014-Oct-22 22:34N 51°18' E 004°16'2 1.5
2014-Oct-22 21:34N 51°19' E 004°16'6 6.2
2014-Oct-22 20:33N 51°22' E 004°08'7 6.9
2014-Oct-22 19:34N 51°23' E 003°57'1010.0
2014-Oct-22 18:33N 51°26' E 003°41'1111.2
2014-Oct-22 17:34N 51°24' E 003°23'1414.1
2014-Oct-22 16:33N 51°25' E 003°01'1413.7
2014-Oct-22 15:32N 51°37' E 003°11'1211.8
2014-Oct-22 14:33N 51°49' E 003°12'1 1.0
2014-Oct-22 13:33N 51°48' E 003°12'3 3.3
2014-Oct-22 12:29N 51°44' E 003°11'4 4.4
2014-Oct-22 11:33N 51°41' E 003°07'2 2.1
2014-Oct-22 10:30N 51°43' E 003°04'2 2.1
2014-Oct-22 09:33N 51°44' E 003°02'1 1.4
2014-Oct-22 08:33N 51°44' E 002°60'1 1.3
2014-Oct-22 07:33N 51°45' E 003°01'5 4.3
2014-Oct-22 06:27N 51°44' E 003°08'4 4.8
2014-Oct-22 05:33N 51°47' E 003°14'3 2.3
2014-Oct-22 04:27N 51°49' E 003°12'2 2.2
2014-Oct-22 03:29N 51°48' E 003°15'1 1.2
2014-Oct-22 02:20N 51°49' E 003°16'2 2.4
2014-Oct-22 01:31N 51°51' E 003°17'7 7.6
2014-Oct-22 00:33N 51°58' E 003°20'1514.4
2014-Oct-21 23:32N 52°11' E 003°30'1514.8
2014-Oct-21 22:30N 52°25' E 003°40'1514.6
2014-Oct-21 21:29N 52°38' E 003°51'1615.7
2014-Oct-21 20:29N 52°53' E 003°59'1515.6
2014-Oct-21 19:33N 53°05' E 004°14'1515.6
2014-Oct-21 18:33N 53°17' E 004°29'1414.2
2014-Oct-21 17:33N 53°29' E 004°41'1413.4
2014-Oct-21 16:33N 53°35' E 005°02'1212.4
2014-Oct-21 15:33N 53°39' E 005°22'1313.1
2014-Oct-21 14:33N 53°43' E 005°43'1413.9
2014-Oct-21 13:34N 53°47' E 006°05'1514.3
2014-Oct-21 12:29N 53°51' E 006°30'3314.2
2014-Oct-21 10:10N 53°59' E 007°24'913.8
2014-Oct-21 09:29N 54°01' E 007°40'1313.9
2014-Oct-21 08:33N 54°01' E 008°02'1313.2
2014-Oct-21 07:33N 53°59' E 008°24'1313.5
2014-Oct-21 06:33N 53°52' E 008°44'1615.5
2014-Oct-21 05:33N 53°53' E 009°10'1514.7
2014-Oct-21 04:33N 53°43' E 009°29'1312.6
2014-Oct-21 03:34N 53°34' E 009°43'8 7.5
2014-Oct-21 02:33N 53°32' E 009°55'0 0.0
2014-Oct-21 01:32N 53°32' E 009°55'0 0.0
2014-Oct-21 00:32N 53°32' E 009°55'0 0.0
2014-Oct-20 23:29N 53°32' E 009°55'0 0.0
2014-Oct-20 22:26N 53°32' E 009°55'0 0.0
2014-Oct-20 21:29N 53°32' E 009°55'0 0.0
2014-Oct-20 20:32N 53°32' E 009°55'0 0.0
2014-Oct-20 19:29N 53°32' E 009°55'0 0.0
2014-Oct-20 18:32N 53°32' E 009°55'0 0.0
2014-Oct-20 17:32N 53°32' E 009°55'0 0.0
2014-Oct-20 16:29N 53°32' E 009°55'0 0.0
2014-Oct-20 15:29N 53°32' E 009°55'0 0.0
2014-Oct-20 14:29N 53°32' E 009°55'0 0.0
2014-Oct-20 13:29N 53°32' E 009°55'0 0.0
2014-Oct-20 12:29N 53°32' E 009°55'0 0.0
2014-Oct-20 11:32N 53°32' E 009°55'0 0.0
2014-Oct-20 10:29N 53°32' E 009°55'0 0.0
2014-Oct-20 09:32N 53°32' E 009°55'0 0.0
2014-Oct-20 08:29N 53°32' E 009°55'0 0.0
2014-Oct-20 07:29N 53°32' E 009°55'0 0.0
2014-Oct-20 06:29N 53°32' E 009°55'0 0.0
2014-Oct-20 05:29N 53°32' E 009°55'0 0.0
2014-Oct-20 04:32N 53°32' E 009°55'0 0.0
2014-Oct-20 03:32N 53°32' E 009°55'0 0.0
2014-Oct-20 02:29N 53°32' E 009°55'0 0.0
2014-Oct-20 01:32N 53°32' E 009°55'1 1.3
2014-Oct-20 00:33N 53°32' E 009°54'8 8.2
2014-Oct-19 23:33N 53°34' E 009°40'1313.3
2014-Oct-19 22:33N 53°44' E 009°26'1313.2
2014-Oct-19 21:33N 53°53' E 009°09'1110.8
2014-Oct-19 20:33N 53°50' E 008°51'1111.1
2014-Oct-19 19:33N 53°57' E 008°36'1615.8
2014-Oct-19 18:33N 53°59' E 008°10'1111.0
2014-Oct-19 17:33N 53°57' E 007°51'2 2.0
2014-Oct-19 16:32N 53°55' E 007°53'0 0.0
2014-Oct-19 15:31N 53°55' E 007°53'0 0.0
2014-Oct-19 14:31N 53°55' E 007°53'0 0.0
2014-Oct-19 13:31N 53°55' E 007°53'0 0.1
2014-Oct-19 12:31N 53°55' E 007°52'0 0.0
2014-Oct-19 11:31N 53°55' E 007°52'2 1.7
2014-Oct-19 10:33N 53°54' E 007°50'1515.5
2014-Oct-19 09:34N 53°45' E 008°12'1312.5
2014-Oct-19 08:33N 53°37' E 008°28'2 2.4
2014-Oct-19 07:33N 53°36' E 008°31'0 0.0
2014-Oct-19 06:33N 53°36' E 008°31'0 0.0
2014-Oct-19 05:32N 53°36' E 008°31'0 0.0
2014-Oct-19 04:32N 53°36' E 008°31'0 0.0
2014-Oct-19 03:32N 53°36' E 008°31'0 0.0
2014-Oct-19 02:32N 53°36' E 008°31'0 0.0
2014-Oct-19 01:32N 53°36' E 008°31'0 0.0
2014-Oct-19 00:32N 53°36' E 008°31'0 0.0
2014-Oct-18 23:32N 53°36' E 008°31'0 0.0
2014-Oct-18 22:32N 53°36' E 008°31'0 0.0
2014-Oct-18 21:32N 53°36' E 008°31'0 0.0
2014-Oct-18 20:32N 53°36' E 008°31'0 0.0
2014-Oct-18 19:32N 53°36' E 008°31'0 0.0
2014-Oct-18 18:32N 53°36' E 008°31'0 0.0
2014-Oct-18 17:32N 53°36' E 008°31'0 0.0
2014-Oct-18 16:32N 53°36' E 008°31'0 0.0
2014-Oct-18 15:32N 53°36' E 008°31'0 0.0
2014-Oct-18 14:32N 53°36' E 008°31'0 0.0
2014-Oct-18 13:32N 53°36' E 008°31'0 0.0
2014-Oct-18 12:32N 53°36' E 008°31'0 0.0
2014-Oct-18 11:32N 53°36' E 008°31'0 0.0
2014-Oct-18 10:32N 53°36' E 008°31'0 0.0
2014-Oct-18 09:32N 53°36' E 008°31'0 0.0
2014-Oct-18 08:32N 53°36' E 008°31'0 0.0
2014-Oct-18 07:32N 53°36' E 008°31'0 0.0
2014-Oct-18 06:32N 53°36' E 008°31'0 0.0
2014-Oct-18 05:32N 53°36' E 008°31'0 0.0
2014-Oct-18 04:32N 53°36' E 008°31'0 0.0
2014-Oct-18 03:32N 53°36' E 008°31'0 0.0
2014-Oct-18 02:32N 53°36' E 008°31'0 0.0
2014-Oct-18 01:32N 53°36' E 008°31'0 0.0
2014-Oct-18 00:32N 53°36' E 008°31'0 0.0
2014-Oct-17 23:32N 53°36' E 008°31'0 0.0
2014-Oct-17 22:32N 53°36' E 008°31'0 0.0
2014-Oct-17 21:32N 53°36' E 008°31'0 0.0
2014-Oct-17 20:32N 53°36' E 008°31'0 0.0
2014-Oct-17 19:32N 53°36' E 008°31'0 0.0
2014-Oct-17 18:32N 53°36' E 008°31'0 0.0
2014-Oct-17 17:32N 53°36' E 008°31'0 0.0
2014-Oct-17 16:32N 53°36' E 008°31'0 0.0
2014-Oct-17 15:32N 53°36' E 008°31'0 0.0
2014-Oct-17 14:32N 53°36' E 008°31'0 0.0
2014-Oct-17 13:32N 53°36' E 008°31'0 0.0
2014-Oct-17 12:32N 53°36' E 008°31'0 0.0
2014-Oct-17 11:32N 53°36' E 008°31'0 0.0
2014-Oct-17 10:32N 53°36' E 008°31'0 0.0
2014-Oct-17 09:32N 53°36' E 008°31'0 0.0
2014-Oct-17 08:32N 53°36' E 008°31'0 0.0
2014-Oct-17 07:32N 53°36' E 008°31'0 0.0
2014-Oct-17 06:32N 53°36' E 008°31'0 0.0
2014-Oct-17 05:32N 53°36' E 008°31'0 0.0
2014-Oct-17 04:33N 53°36' E 008°31'5 5.1
2014-Oct-17 03:33N 53°39' E 008°24'1413.9
2014-Oct-17 02:33N 53°49' E 008°07'1717.1
2014-Oct-17 01:33N 53°54' E 007°40'2114.4
2014-Oct-17 00:07N 53°52' E 007°04'915.0
2014-Oct-16 23:31N 53°50' E 006°49'1414.8
2014-Oct-16 22:33N 53°46' E 006°26'1414.5
2014-Oct-16 21:34N 53°42' E 006°03'1414.3
2014-Oct-16 20:33N 53°37' E 005°40'1414.1
2014-Oct-16 19:33N 53°33' E 005°17'1413.9
2014-Oct-16 18:33N 53°28' E 004°56'1313.2
2014-Oct-16 17:33N 53°20' E 004°38'1413.4
2014-Oct-16 16:32N 53°07' E 004°28'1313.4
2014-Oct-16 15:33N 52°56' E 004°18'1313.2
2014-Oct-16 14:33N 52°44' E 004°07'1313.4
2014-Oct-16 13:33N 52°35' E 003°51'1313.3
2014-Oct-16 12:33N 52°24' E 003°39'1413.7
2014-Oct-16 11:33N 52°11' E 003°32'1211.8
2014-Oct-16 10:33N 52°05' E 003°48'1111.5
2014-Oct-16 09:34N 51°59' E 004°04'2 1.7
2014-Oct-16 08:31N 51°57' E 004°02'0 0.0
2014-Oct-16 07:31N 51°57' E 004°02'0 0.0
2014-Oct-16 06:31N 51°57' E 004°02'0 0.0
2014-Oct-16 05:31N 51°57' E 004°02'0 0.0
2014-Oct-16 04:31N 51°57' E 004°02'0 0.0
2014-Oct-16 03:31N 51°57' E 004°02'0 0.0
2014-Oct-16 02:31N 51°57' E 004°02'0 0.0
2014-Oct-16 01:31N 51°57' E 004°02'0 0.0
2014-Oct-16 00:31N 51°57' E 004°02'0 0.0
2014-Oct-15 23:31N 51°57' E 004°02'0 0.0
2014-Oct-15 22:31N 51°57' E 004°02'0 0.0
2014-Oct-15 21:31N 51°57' E 004°02'0 0.0
2014-Oct-15 20:31N 51°57' E 004°02'0 0.0
2014-Oct-15 19:31N 51°57' E 004°02'0 0.0
2014-Oct-15 18:31N 51°57' E 004°02'0 0.0
2014-Oct-15 17:28N 51°57' E 004°02'0 0.0
2014-Oct-15 16:31N 51°57' E 004°02'0 0.0
2014-Oct-15 15:22N 51°57' E 004°02'0 0.0
2014-Oct-15 14:31N 51°57' E 004°02'0 0.0
2014-Oct-15 13:31N 51°57' E 004°02'0 0.3
2014-Oct-15 12:33N 51°58' E 004°03'2 2.4
2014-Oct-15 11:33N 51°60' E 004°01'1010.0
2014-Oct-15 10:33N 51°59' E 003°45'10 9.9
2014-Oct-15 09:33N 51°57' E 003°29'4214.0
2014-Oct-15 06:33N 51°39' E 002°28'1918.5
2014-Oct-15 05:33N 51°23' E 002°12'2120.9
2014-Oct-15 04:34N 51°08' E 001°49'2221.9
2014-Oct-15 03:33N 50°51' E 001°27'2420.5
2014-Oct-15 02:23N 50°32' E 001°03'1821.1
2014-Oct-15 01:33N 50°25' E 000°38'  

Dump ship's entire track history